Hovedside
METAR-TAF:

METAR-TAF

Lufthavner :

Københavns lufthavn

København, Danmark

breddegrad: 55-37N, lengdegrad: 012-39E, høyde over havet: 5 m

Gjeldene værobservasjon

Denne rapporten ble laget for 32 minutter siden, klokken 17:20 UTC
Vind 10 kt fra Nordøst
Temperatur 2°C
Luftfuktighet 80%
Trykk 1030 hPa
Sikt 10 km eller mer
Brutte skyer i en høyde av 1700 ft

METAR: EKCH 121720Z 04010KT 9999 BKN017 02/M01 Q1030 NOSIG

Tid: 18:52 (17:52 UTC)

Varsel

Denne rapporten ble laget for 51 minutter siden, klokken 17:01 UTC
Varsel gyldig fra 12. klokken 18 UTC til 13. klokken 18 UTC
Vind 10 kt fra Nordøst
Sikt 10 km eller mer
Brutte skyer i en høyde av 2000 ft
Sannsynlighet 40%
fra 12. klokken 21 UTC til 13. klokken 09 UTC
Brutte skyer i en høyde av 1000 ft

TAF: EKCH 121701Z 1218/1318 04010KT 9999 BKN020 PROB40 1221/1309 BKN010

Værobservasjoner og værvarsel for over 4000 flyplasser (METAR- og TAF-rapporter).

Tilgjengelige stasjoner er representert av de røde og gule prikkene på kartet.

Hold musepekeren over prikken for å se navnet på stasjonen.

Klikk så for å se værobservasjoner og -varsler.

For å forandre kartet kan du klikke på den grønne knappen med svart kryss for å zoome inn, på den grønne knappen med strek for å zoome ut, eller på de grønne pilene for å se tilstøtende kart.


METAR-TAF: